Time;durP1;ratioP1;P1;durP2;ratioP2;P2;SDS_P1;SDS_P2;PMS_P1;PMS_P2;Temp;Humidity;BMP_temperature;BMP_pressure;BME280_temperature;BME280_humidity;BME280_pressure;Samples;Min_cycle;Max_cycle;Signal;HPM_P1;HPM_P2
2024/01/15 00:01:07;;;;;;;66.10;32.10;;;;;;;-0.51;100.00;100261.56;5283822;28;20060;-71
2024/01/15 00:03:39;;;;;;;70.85;32.60;;;;;;;-0.53;100.00;100250.41;5284937;28;20040;-70
2024/01/15 00:06:10;;;;;;;72.03;33.37;;;;;;;-0.51;100.00;100247.91;5283982;28;20032;-71
2024/01/15 00:08:41;;;;;;;67.43;33.47;;;;;;;-0.53;100.00;100255.53;5284062;28;20064;-71
2024/01/15 00:11:13;;;;;;;71.47;32.30;;;;;;;-0.57;100.00;100244.34;5284251;28;20040;-71
2024/01/15 00:13:44;;;;;;;67.80;31.63;;;;;;;-0.61;100.00;100241.66;5284009;28;20074;-71
2024/01/15 00:16:15;;;;;;;64.43;30.37;;;;;;;-0.60;100.00;100243.41;5283891;28;20059;-70
2024/01/15 00:18:47;;;;;;;63.03;30.13;;;;;;;-0.58;100.00;100236.63;5284577;28;20063;-71
2024/01/15 00:21:18;;;;;;;68.33;29.80;;;;;;;-0.60;100.00;100230.59;5283406;28;20383;-71
2024/01/15 00:23:50;;;;;;;59.43;28.30;;;;;;;-0.61;100.00;100227.19;5283714;28;20036;-72
2024/01/15 00:26:21;;;;;;;62.00;30.47;;;;;;;-0.63;100.00;100227.97;5284008;28;20115;-71
2024/01/15 00:28:52;;;;;;;55.87;27.87;;;;;;;-0.64;100.00;100228.81;5283717;28;20033;-71
2024/01/15 00:31:24;;;;;;;50.53;26.53;;;;;;;-0.64;100.00;100226.25;5283946;28;20028;-71
2024/01/15 00:33:56;;;;;;;50.30;25.27;;;;;;;-0.66;100.00;100233.91;5283577;28;20033;-73
2024/01/15 00:36:27;;;;;;;57.25;25.85;;;;;;;-0.69;100.00;100222.69;5283510;28;20353;-72
2024/01/15 00:38:58;;;;;;;54.67;26.03;;;;;;;-0.67;100.00;100218.50;5283483;28;20090;-70
2024/01/15 00:41:30;;;;;;;55.30;24.73;;;;;;;-0.66;100.00;100218.53;5283914;28;20032;-71
2024/01/15 00:44:02;;;;;;;50.67;22.60;;;;;;;-0.69;100.00;100208.22;5283383;28;20055;-71
2024/01/15 00:46:43;;;;;;;40.58;20.90;;;;;;;-0.68;100.00;100201.41;5283781;28;20119;-71
2024/01/15 00:49:15;;;;;;;39.50;18.58;;;;;;;-0.69;100.00;100200.56;5283438;28;20448;-70
2024/01/15 00:51:47;;;;;;;32.88;16.55;;;;;;;-0.68;100.00;100206.53;5283557;28;20029;-71
2024/01/15 00:54:18;;;;;;;28.23;12.90;;;;;;;-0.68;100.00;100197.16;5283386;28;20533;-71
2024/01/15 00:56:49;;;;;;;23.30;10.87;;;;;;;-0.59;100.00;100191.38;5283308;28;20322;-71
2024/01/15 00:59:22;;;;;;;20.45;9.57;;;;;;;-0.58;100.00;100193.09;5283021;28;20056;-71
2024/01/15 01:01:53;;;;;;;20.07;8.57;;;;;;;-0.51;100.00;100201.81;5283304;28;20498;-71
2024/01/15 01:04:25;;;;;;;11.53;6.50;;;;;;;-0.49;100.00;100192.47;5283304;28;20082;-71
2024/01/15 01:06:56;;;;;;;10.60;5.33;;;;;;;-0.48;100.00;100189.94;5283236;28;20484;-72
2024/01/15 01:09:29;;;;;;;9.87;4.17;;;;;;;-0.45;100.00;100195.13;5283202;28;20032;-71
2024/01/15 01:12:01;;;;;;;13.05;3.55;;;;;;;-0.45;100.00;100187.44;5281728;28;20028;-71
2024/01/15 01:14:32;;;;;;;7.73;3.10;;;;;;;-0.43;100.00;100183.22;5282771;28;20398;-72
2024/01/15 01:17:04;;;;;;;8.37;2.87;;;;;;;-0.44;100.00;100188.31;5283136;28;20082;-72
2024/01/15 01:19:35;;;;;;;9.40;3.13;;;;;;;-0.48;100.00;100187.38;5283160;28;20055;-72
2024/01/15 01:22:06;;;;;;;10.90;3.87;;;;;;;-0.44;100.00;100186.59;5283781;28;20028;-72
2024/01/15 01:24:38;;;;;;;8.43;4.17;;;;;;;-0.46;100.00;100175.47;5283074;28;20116;-72
2024/01/15 01:27:09;;;;;;;10.17;3.50;;;;;;;-0.46;100.00;100172.91;5283125;28;20032;-72
2024/01/15 01:29:40;;;;;;;8.23;2.87;;;;;;;-0.47;100.00;100181.41;5283030;28;20032;-72
2024/01/15 01:32:12;;;;;;;8.77;2.90;;;;;;;-0.49;100.00;100183.06;5283006;28;20029;-72
2024/01/15 01:34:43;;;;;;;6.43;2.90;;;;;;;-0.49;100.00;100182.22;5283594;28;20025;-72
2024/01/15 01:37:15;;;;;;;9.23;3.33;;;;;;;-0.54;100.00;100191.50;5282612;28;20082;-72
2024/01/15 01:39:46;;;;;;;12.73;3.07;;;;;;;-0.51;100.00;100183.88;5283159;28;20372;-71
2024/01/15 01:42:17;;;;;;;4.10;2.80;;;;;;;-0.42;100.00;100191.75;5282459;28;20032;-72
2024/01/15 01:44:49;;;;;;;7.53;2.93;;;;;;;-0.40;100.00;100192.69;5282119;28;20415;-72
2024/01/15 01:47:20;;;;;;;13.23;3.57;;;;;;;-0.44;100.00;100184.03;5282132;28;20036;-72
2024/01/15 01:49:53;;;;;;;11.40;3.57;;;;;;;-0.44;100.00;100189.16;5283296;28;20036;-70
2024/01/15 01:52:24;;;;;;;11.25;4.38;;;;;;;-0.45;100.00;100182.31;5281511;28;20468;-71
2024/01/15 01:54:56;;;;;;;12.17;3.67;;;;;;;-0.50;100.00;100188.16;5283233;28;20033;-71
2024/01/15 01:57:29;;;;;;;10.32;3.20;;;;;;;-0.53;100.00;100188.97;5283187;28;20113;-71
2024/01/15 02:00:03;;;;;;;7.70;3.22;;;;;;;-0.57;100.00;100199.97;5281185;28;20056;-71
2024/01/15 02:02:35;;;;;;;9.90;3.17;;;;;;;-0.57;100.00;100182.03;5283034;28;20465;-71
2024/01/15 02:05:08;;;;;;;11.43;3.73;;;;;;;-0.60;100.00;100193.06;5287046;28;20035;-71
2024/01/15 02:07:40;;;;;;;12.77;4.57;;;;;;;-0.58;100.00;100185.41;5286543;28;20490;-71
2024/01/15 02:10:12;;;;;;;11.27;3.08;;;;;;;-0.62;100.00;100176.81;5286693;28;20097;-72
2024/01/15 02:12:44;;;;;;;10.37;3.30;;;;;;;-0.70;100.00;100177.47;5286384;28;20032;-72
2024/01/15 02:15:15;;;;;;;11.38;3.55;;;;;;;-0.70;100.00;100178.34;5286844;28;20039;-72
2024/01/15 02:17:57;;;;;;;7.83;2.60;;;;;;;-0.79;100.00;100183.22;5286253;28;20060;-72
2024/01/15 02:20:29;;;;;;;6.05;2.55;;;;;;;-0.80;100.00;100184.09;5286280;28;20060;-72
2024/01/15 02:23:13;;;;;;;7.20;2.80;;;;;;;-0.74;100.00;100179.97;5286217;28;20129;-72
2024/01/15 02:25:46;;;;;;;11.88;3.45;;;;;;;-0.72;100.00;100180.00;5286204;28;20086;-72
2024/01/15 02:28:18;;;;;;;8.20;2.58;;;;;;;-0.77;100.00;100171.34;5286118;28;20044;-70
2024/01/15 02:30:49;;;;;;;10.43;2.57;;;;;;;-0.78;100.00;100167.91;5286355;28;20032;-71
2024/01/15 02:33:20;;;;;;;8.93;2.93;;;;;;;-0.82;100.00;100168.69;5286128;28;20044;-71
2024/01/15 02:35:52;;;;;;;7.20;2.43;;;;;;;-0.86;100.00;100172.00;5285999;28;20067;-71
2024/01/15 02:38:23;;;;;;;9.80;2.50;;;;;;;-0.98;100.00;100175.13;5285987;28;20029;-72
2024/01/15 02:40:54;;;;;;;10.87;2.47;;;;;;;-0.92;100.00;100167.59;5285946;28;20111;-72
2024/01/15 02:43:26;;;;;;;8.50;2.43;;;;;;;-0.95;100.00;100169.22;5285891;28;20028;-72
2024/01/15 02:45:57;;;;;;;9.60;2.17;;;;;;;-1.03;100.00;100163.94;5285761;28;20033;-72
2024/01/15 02:48:29;;;;;;;7.73;2.17;;;;;;;-0.98;100.00;100171.72;5285550;28;20384;-70
2024/01/15 02:51:01;;;;;;;4.30;1.90;;;;;;;-1.00;100.00;100169.13;5285761;28;20491;-71
2024/01/15 02:53:32;;;;;;;8.32;3.20;;;;;;;-1.02;100.00;100164.78;5285681;28;20064;-71
2024/01/15 02:56:04;;;;;;;5.67;2.00;;;;;;;-1.00;100.00;100171.69;5285806;28;20074;-71
2024/01/15 02:58:35;;;;;;;12.80;3.90;;;;;;;-1.03;100.00;100168.16;5285500;28;20039;-71
2024/01/15 03:01:07;;;;;;;11.67;2.33;;;;;;;-1.07;100.00;100169.78;5285417;28;20052;-71
2024/01/15 03:03:40;;;;;;;11.23;2.10;;;;;;;-1.00;100.00;100176.81;5285851;28;20095;-71
2024/01/15 03:06:11;;;;;;;12.85;2.35;;;;;;;-0.88;100.00;100180.47;5285100;28;20266;-71
2024/01/15 03:08:43;;;;;;;8.53;2.27;;;;;;;-0.76;100.00;100189.31;5285661;28;20133;-72
2024/01/15 03:11:14;;;;;;;10.00;2.73;;;;;;;-0.71;100.00;100191.94;5284009;28;20028;-71
2024/01/15 03:13:45;;;;;;;13.13;3.60;;;;;;;-0.70;100.00;100185.16;5265952;28;20063;-71
2024/01/15 03:16:19;;;;;;;7.50;2.47;;;;;;;-0.67;100.00;100193.78;5285224;28;20402;-71
2024/01/15 03:18:51;;;;;;;12.02;2.38;;;;;;;-0.72;100.00;100187.69;5285144;28;20380;-71
2024/01/15 03:21:22;;;;;;;11.83;2.60;;;;;;;-0.71;100.00;100176.59;5285144;28;20024;-72
2024/01/15 03:23:53;;;;;;;7.03;2.50;;;;;;;-0.79;100.00;100184.13;5285061;28;20037;-72
2024/01/15 03:26:25;;;;;;;9.43;2.17;;;;;;;-0.89;100.00;100183.84;5285012;28;20029;-72
2024/01/15 03:28:56;;;;;;;8.47;2.03;;;;;;;-0.86;100.00;100178.81;5284977;28;20060;-71
2024/01/15 03:31:28;;;;;;;14.60;3.57;;;;;;;-0.91;100.00;100165.91;5285342;28;20028;-72
2024/01/15 03:33:59;;;;;;;7.80;2.00;;;;;;;-0.97;100.00;100174.28;5284825;28;20107;-72
2024/01/15 03:36:30;;;;;;;8.87;2.50;;;;;;;-0.98;100.00;100171.72;5284724;28;20499;-72
2024/01/15 03:39:02;;;;;;;8.27;2.43;;;;;;;-0.99;100.00;100168.28;5284995;28;20025;-72
2024/01/15 03:41:33;;;;;;;16.07;2.83;;;;;;;-0.88;100.00;100176.22;5284988;28;20032;-71
2024/01/15 03:44:05;;;;;;;16.77;2.97;;;;;;;-0.82;100.00;100173.81;5283181;28;20028;-72
2024/01/15 03:46:36;;;;;;;13.50;2.33;;;;;;;-0.82;100.00;100166.13;5284333;28;20391;-72
2024/01/15 03:49:07;;;;;;;10.83;3.03;;;;;;;-0.80;100.00;100168.72;5284558;28;20107;-73
2024/01/15 03:51:39;;;;;;;13.63;2.87;;;;;;;-0.76;100.00;100167.94;5284241;28;20128;-72
2024/01/15 03:54:10;;;;;;;16.80;3.70;;;;;;;-0.73;100.00;100152.66;5284181;28;20040;-72
2024/01/15 03:56:42;;;;;;;15.97;3.83;;;;;;;-0.68;100.00;100158.75;5283498;28;20093;-71
2024/01/15 03:59:13;;;;;;;10.53;3.00;;;;;;;-0.64;100.00;100157.16;5283882;28;20076;-71
2024/01/15 04:01:52;;;;;;;7.80;3.10;;;;;;;-0.65;100.00;100156.25;5284876;28;20059;-71
2024/01/15 04:04:24;;;;;;;16.88;2.97;;;;;;;-0.64;100.00;100142.66;5284669;28;20032;-72
2024/01/15 04:06:55;;;;;;;14.03;5.30;;;;;;;-0.60;100.00;100133.34;5284153;28;20033;-71
2024/01/15 04:09:26;;;;;;;14.47;3.40;;;;;;;-0.57;100.00;100139.38;5284103;28;20082;-72
2024/01/15 04:11:58;;;;;;;15.10;2.77;;;;;;;-0.50;100.00;100132.72;5283818;28;20032;-72
2024/01/15 04:14:29;;;;;;;15.27;4.47;;;;;;;-0.51;100.00;100141.22;5283232;28;20442;-71
2024/01/15 04:17:00;;;;;;;10.63;2.63;;;;;;;-0.47;100.00;100132.75;5283830;28;20028;-71
2024/01/15 04:19:32;;;;;;;11.20;2.80;;;;;;;-0.45;100.00;100133.69;5283914;28;20067;-72
2024/01/15 04:22:03;;;;;;;7.40;3.10;;;;;;;-0.42;100.00;100141.44;5283578;28;20036;-72
2024/01/15 04:24:34;;;;;;;17.43;2.70;;;;;;;-0.45;100.00;100126.00;5283788;28;20471;-71
2024/01/15 04:27:07;;;;;;;19.27;3.10;;;;;;;-0.46;100.00;100123.41;5283969;28;20032;-72
2024/01/15 04:29:39;;;;;;;11.75;2.45;;;;;;;-0.53;100.00;100122.41;5283823;28;20127;-72
2024/01/15 04:32:10;;;;;;;10.18;2.60;;;;;;;-0.54;100.00;100127.50;5284250;28;20349;-72
2024/01/15 04:34:42;;;;;;;10.07;2.97;;;;;;;-0.55;100.00;100126.59;5283956;28;20094;-72
2024/01/15 04:37:13;;;;;;;6.00;2.50;;;;;;;-0.52;100.00;100123.25;5283749;28;20031;-71
2024/01/15 04:39:45;;;;;;;7.10;2.80;;;;;;;-0.50;100.00;100125.03;5283979;28;20071;-71
2024/01/15 04:42:16;;;;;;;7.97;2.37;;;;;;;-0.44;100.00;100135.38;5283493;28;20029;-71
2024/01/15 04:44:47;;;;;;;6.87;2.07;;;;;;;-0.45;100.00;100123.44;5283338;28;20035;-72
2024/01/15 04:47:19;;;;;;;5.57;2.03;;;;;;;-0.53;100.00;100126.66;5282371;28;20060;-70
2024/01/15 04:49:51;;;;;;;4.37;2.00;;;;;;;-0.68;100.00;100117.78;5283395;28;20403;-72
2024/01/15 04:52:23;;;;;;;7.00;2.67;;;;;;;-0.80;100.00;100110.72;5283905;28;20391;-71
2024/01/15 04:54:54;;;;;;;6.70;2.05;;;;;;;-0.87;100.00;100121.66;5283019;28;20036;-71
2024/01/15 04:57:26;;;;;;;5.83;2.10;;;;;;;-0.85;100.00;100119.13;5283802;28;20440;-71
2024/01/15 04:59:57;;;;;;;6.37;2.80;;;;;;;-0.85;100.00;100124.22;5282921;28;20052;-71
2024/01/15 05:02:28;;;;;;;9.73;2.00;;;;;;;-0.83;100.00;100110.66;5283289;28;20120;-70
2024/01/15 05:05:00;;;;;;;4.93;1.83;;;;;;;-0.78;100.00;100114.16;5281694;28;20037;-70
2024/01/15 05:07:31;;;;;;;2.87;1.60;;;;;;;-0.82;100.00;100121.75;5283495;28;20521;-70
2024/01/15 05:10:03;;;;;;;5.40;1.60;;;;;;;-0.84;100.00;100118.28;5283519;28;20024;-70
2024/01/15 05:12:34;;;;;;;4.55;1.60;;;;;;;-0.86;100.00;100113.13;5283139;28;20033;-70
2024/01/15 05:15:06;;;;;;;5.13;2.10;;;;;;;-0.87;100.00;100113.09;5281770;28;20040;-70
2024/01/15 05:17:37;;;;;;;5.77;1.63;;;;;;;-0.89;100.00;100100.28;5283052;28;20035;-70
2024/01/15 05:20:09;;;;;;;4.23;1.50;;;;;;;-0.92;100.00;100102.75;5283909;28;20111;-70
2024/01/15 05:22:41;;;;;;;5.45;1.42;;;;;;;-0.97;100.00;100094.13;5282711;28;20033;-70
2024/01/15 05:25:12;;;;;;;6.50;2.10;;;;;;;-0.99;100.00;100088.13;5283640;28;20035;-69
2024/01/15 05:27:43;;;;;;;6.20;2.03;;;;;;;-1.04;100.00;100092.25;5281709;28;20040;-70
2024/01/15 05:30:16;;;;;;;5.37;2.23;;;;;;;-1.04;100.00;100092.25;5283024;28;20032;-70
2024/01/15 05:32:47;;;;;;;7.47;2.50;;;;;;;-1.08;100.00;100091.31;5283699;28;20032;-70
2024/01/15 05:35:19;;;;;;;3.50;2.27;;;;;;;-1.07;100.00;100092.19;5282999;28;20041;-70
2024/01/15 05:37:50;;;;;;;7.70;2.70;;;;;;;-1.04;100.00;100087.16;5284593;28;20032;-70
2024/01/15 05:40:21;;;;;;;9.43;2.63;;;;;;;-0.99;100.00;100090.66;5286865;28;20029;-71
2024/01/15 05:42:53;;;;;;;7.13;3.07;;;;;;;-0.89;100.00;100084.91;5285812;28;20380;-70
2024/01/15 05:45:26;;;;;;;8.53;3.03;;;;;;;-0.84;100.00;100082.47;5287540;28;20425;-70
2024/01/15 05:47:58;;;;;;;8.25;2.90;;;;;;;-0.82;100.00;100085.91;5286961;28;20032;-70
2024/01/15 05:50:29;;;;;;;9.47;3.27;;;;;;;-0.76;100.00;100080.94;5286852;28;20036;-70
2024/01/15 05:53:02;;;;;;;10.00;3.13;;;;;;;-0.75;100.00;100086.09;5286616;28;20413;-70
2024/01/15 05:55:36;;;;;;;12.88;3.42;;;;;;;-0.74;100.00;100084.41;5286823;28;20352;-70
2024/01/15 05:58:07;;;;;;;11.40;2.63;;;;;;;-0.78;100.00;100074.94;5285402;28;20036;-70
2024/01/15 06:00:38;;;;;;;9.07;2.80;;;;;;;-0.78;100.00;100068.09;5286221;28;20044;-70
2024/01/15 06:03:10;;;;;;;14.40;3.80;;;;;;;-0.76;100.00;100071.59;5287028;28;20029;-71
2024/01/15 06:05:41;;;;;;;5.97;2.47;;;;;;;-0.73;100.00;100081.84;5286108;28;20028;-71
2024/01/15 06:08:14;;;;;;;14.57;3.37;;;;;;;-0.70;100.00;100078.53;5286291;28;20101;-72
2024/01/15 06:10:45;;;;;;;;;;;;;;;-0.70;100.00;100073.41;5286702;28;20296;-71
2024/01/15 06:13:17;;;;;;;14.23;4.10;;;;;;;-0.69;100.00;100074.25;5286037;28;20343;-72
2024/01/15 06:15:48;;;;;;;9.30;3.60;;;;;;;-0.68;100.00;100070.88;5286565;28;20111;-72
2024/01/15 06:18:19;;;;;;;10.77;3.30;;;;;;;-0.68;100.00;100063.19;5286037;28;20032;-72
2024/01/15 06:20:51;;;;;;;14.13;3.67;;;;;;;-0.69;100.00;100062.34;5286032;28;20063;-72
2024/01/15 06:23:22;;;;;;;9.63;3.87;;;;;;;-0.69;100.00;100069.13;5286114;28;20347;-71
2024/01/15 06:25:53;;;;;;;7.37;3.57;;;;;;;-0.75;100.00;100065.63;5285477;28;20103;-71
2024/01/15 06:28:25;;;;;;;12.37;3.23;;;;;;;-0.69;100.00;100059.78;5285590;28;20470;-71
2024/01/15 06:30:57;;;;;;;11.63;3.20;;;;;;;-0.66;100.00;100061.53;5285398;28;20468;-72
2024/01/15 06:33:29;;;;;;;;;;;;;;;-0.63;100.00;100066.72;5286287;28;20028;-71
2024/01/15 06:36:00;;;;;;;8.40;3.30;;;;;;;-0.63;100.00;100065.03;5285170;28;20063;-71
2024/01/15 06:38:32;;;;;;;7.50;3.30;;;;;;;-0.63;100.00;100062.47;5286089;28;20464;-73
2024/01/15 06:41:03;;;;;;;4.87;3.00;;;;;;;-0.63;100.00;100054.78;5285515;28;20487;-72
2024/01/15 06:43:35;;;;;;;8.27;3.10;;;;;;;-0.68;100.00;100065.75;5285534;28;20036;-72
2024/01/15 06:46:06;;;;;;;10.07;3.30;;;;;;;-0.70;100.00;100072.53;5285506;28;20029;-73
2024/01/15 06:48:37;;;;;;;6.33;3.37;;;;;;;-0.80;100.00;100068.94;5285534;28;20024;-72
2024/01/15 06:51:09;;;;;;;7.10;2.90;;;;;;;-0.89;100.00;100069.56;5285858;28;20166;-71
2024/01/15 06:53:40;;;;;;;4.17;2.73;;;;;;;-0.95;100.00;100060.09;5285407;28;20033;-71
2024/01/15 06:56:12;;;;;;;7.40;3.13;;;;;;;-1.00;100.00;100071.03;5285287;28;20071;-71
2024/01/15 06:58:43;;;;;;;4.80;2.80;;;;;;;-1.07;100.00;100070.03;5285308;28;20368;-71
2024/01/15 07:01:14;;;;;;;5.47;3.00;;;;;;;-1.08;100.00;100062.31;5285502;28;20121;-71
2024/01/15 07:03:46;;;;;;;4.47;3.70;;;;;;;-1.10;100.00;100072.50;5283938;28;20330;-71
2024/01/15 07:06:17;;;;;;;7.70;3.60;;;;;;;-1.10;100.00;100064.84;5285688;28;20033;-71
2024/01/15 07:08:49;;;;;;;5.37;3.50;;;;;;;-1.10;100.00;100060.56;5285006;28;20039;-71
2024/01/15 07:11:21;;;;;;;6.72;4.03;;;;;;;-1.07;100.00;100066.63;5285240;28;20028;-71
2024/01/15 07:13:52;;;;;;;7.03;4.33;;;;;;;-1.07;100.00;100064.06;5285002;28;20388;-71
2024/01/15 07:16:23;;;;;;;7.83;4.80;;;;;;;-1.08;100.00;100063.16;5284946;28;20037;-71
2024/01/15 07:18:55;;;;;;;6.93;4.67;;;;;;;-1.09;100.00;100071.69;5285247;28;20181;-70
2024/01/15 07:21:26;;;;;;;7.00;4.27;;;;;;;-1.09;100.00;100069.13;5285225;28;20029;-70
2024/01/15 07:23:57;;;;;;;6.93;4.93;;;;;;;-1.08;100.00;100068.28;5285040;28;20109;-71
2024/01/15 07:26:30;;;;;;;8.43;5.63;;;;;;;-1.10;100.00;100067.41;5284873;28;20116;-71
2024/01/15 07:29:01;;;;;;;8.40;5.50;;;;;;;-1.08;100.00;100070.00;5284785;28;20047;-71
2024/01/15 07:31:32;;;;;;;6.50;5.33;;;;;;;-1.07;100.00;100071.72;5285075;28;20108;-71
2024/01/15 07:34:04;;;;;;;8.67;5.80;;;;;;;-1.05;100.00;100062.38;5284682;28;20052;-71
2024/01/15 07:36:35;;;;;;;10.30;5.87;;;;;;;-1.06;100.00;100064.09;5284646;28;20032;-70
2024/01/15 07:39:07;;;;;;;7.60;5.33;;;;;;;-1.05;100.00;100067.50;5284183;28;20028;-71
2024/01/15 07:41:38;;;;;;;6.57;5.30;;;;;;;-1.03;100.00;100068.41;5284610;28;20047;-72
2024/01/15 07:44:09;;;;;;;8.77;5.50;;;;;;;-1.01;100.00;100067.63;5284519;28;20110;-72
2024/01/15 07:46:45;;;;;;;8.47;6.67;;;;;;;-1.00;100.00;100068.47;5284289;28;20036;-71
2024/01/15 07:49:16;;;;;;;9.65;7.25;;;;;;;-0.99;100.00;100075.31;5284140;28;20029;-69
2024/01/15 07:51:48;;;;;;;12.00;8.77;;;;;;;-0.98;100.00;100082.19;5284513;28;20043;-71
2024/01/15 07:54:19;;;;;;;10.73;8.23;;;;;;;-0.97;100.00;100078.78;5284072;28;20121;-70
2024/01/15 07:56:59;;;;;;;12.13;8.40;;;;;;;-0.95;100.00;100085.66;5284137;28;20044;-70
2024/01/15 07:59:30;;;;;;;11.15;8.40;;;;;;;-0.93;100.00;100083.13;5283675;28;20094;-70
2024/01/15 08:02:02;;;;;;;13.53;8.90;;;;;;;-0.89;100.00;100084.06;5283826;28;20070;-70
2024/01/15 08:04:33;;;;;;;10.73;9.03;;;;;;;-0.87;100.00;100082.41;5283903;28;20043;-71
2024/01/15 08:07:06;;;;;;;14.53;9.73;;;;;;;-0.85;100.00;100093.53;5285606;28;20040;-70
2024/01/15 08:09:38;;;;;;;12.00;9.60;;;;;;;-0.85;100.00;100096.97;5283700;28;20043;-71
2024/01/15 08:12:09;;;;;;;12.90;10.30;;;;;;;-0.82;100.00;100097.03;5283005;28;20364;-70
2024/01/15 08:14:41;;;;;;;13.07;9.10;;;;;;;-0.83;100.00;100100.41;5283934;28;20029;-70
2024/01/15 08:17:12;;;;;;;16.87;10.50;;;;;;;-0.83;100.00;100102.97;5283710;28;20036;-70
2024/01/15 08:19:44;;;;;;;14.13;9.30;;;;;;;-0.81;100.00;100103.88;5283714;28;20058;-70
2024/01/15 08:22:15;;;;;;;10.60;8.43;;;;;;;-0.78;100.00;100109.06;5282973;28;20029;-70
2024/01/15 08:24:46;;;;;;;12.90;8.93;;;;;;;-0.75;100.00;100105.72;5283298;28;20038;-71
2024/01/15 08:27:19;;;;;;;11.80;7.07;;;;;;;-0.75;100.00;100105.72;5282368;28;20364;-71
2024/01/15 08:29:51;;;;;;;9.07;7.07;;;;;;;-0.78;100.00;100096.25;5283338;28;20035;-71
2024/01/15 08:32:22;;;;;;;11.80;9.20;;;;;;;-0.77;100.00;100102.25;5283688;28;20056;-71
2024/01/15 08:34:53;;;;;;;10.77;8.80;;;;;;;-0.74;100.00;100100.63;5283118;28;20033;-71
2024/01/15 08:37:25;;;;;;;9.23;6.20;;;;;;;-0.73;100.00;100109.16;5283680;28;20072;-70
2024/01/15 08:39:57;;;;;;;11.63;6.23;;;;;;;-0.74;100.00;100104.88;5281836;28;20036;-70
2024/01/15 08:42:28;;;;;;;7.87;5.60;;;;;;;-0.75;100.00;100111.69;5283380;28;20024;-71
2024/01/15 08:44:59;;;;;;;7.07;5.13;;;;;;;-0.78;100.00;100109.06;5283416;28;20058;-71
2024/01/15 08:47:31;;;;;;;6.73;3.93;;;;;;;-0.79;100.00;100125.25;5283328;28;20040;-71
2024/01/15 08:50:03;;;;;;;7.40;4.13;;;;;;;-0.80;100.00;100110.72;5283316;28;20039;-71
2024/01/15 08:52:34;;;;;;;7.72;3.25;;;;;;;-0.82;100.00;100104.72;5283089;28;20029;-71
2024/01/15 08:55:07;;;;;;;3.53;2.73;;;;;;;-0.84;100.00;100103.78;5282949;28;20029;-71
2024/01/15 08:57:38;;;;;;;5.68;2.90;;;;;;;-0.82;100.00;100104.72;5283007;28;20032;-71
2024/01/15 09:00:10;;;;;;;4.30;2.23;;;;;;;-0.78;100.00;100108.19;5283100;28;20049;-71
2024/01/15 09:02:42;;;;;;;9.05;3.22;;;;;;;-0.74;100.00;100102.34;5282718;28;20135;-71
2024/01/15 09:05:13;;;;;;;8.40;2.20;;;;;;;-0.70;100.00;100121.16;5282905;28;20028;-72
2024/01/15 09:07:46;;;;;;;9.87;2.43;;;;;;;-0.70;100.00;100098.13;5281755;28;20051;-72
2024/01/15 09:10:18;;;;;;;6.00;2.13;;;;;;;-0.69;100.00;100094.72;5283351;28;20482;-70
2024/01/15 09:12:49;;;;;;;12.98;3.15;;;;;;;-0.69;100.00;100110.97;5283405;28;20059;-71
2024/01/15 09:15:21;;;;;;;5.73;2.27;;;;;;;-0.68;100.00;100111.81;5282929;28;20036;-70
2024/01/15 09:17:52;;;;;;;6.00;2.10;;;;;;;-0.67;100.00;100111.84;5283136;28;20206;-71
2024/01/15 09:20:25;;;;;;;10.03;2.17;;;;;;;-0.64;100.00;100105.97;5282867;28;20036;-71
2024/01/15 09:22:57;;;;;;;5.45;1.70;;;;;;;-0.61;100.00;100134.16;5282943;28;20036;-71
2024/01/15 09:25:28;;;;;;;8.60;2.27;;;;;;;-0.59;100.00;100114.59;5283159;28;20029;-72
2024/01/15 09:28:00;;;;;;;5.10;1.70;;;;;;;-0.56;100.00;100114.66;5283319;28;20037;-71
2024/01/15 09:30:31;;;;;;;8.73;2.17;;;;;;;-0.53;100.00;100113.84;5283112;28;20275;-71
2024/01/15 09:33:03;;;;;;;8.90;2.47;;;;;;;-0.51;100.00;100112.22;5282936;28;20107;-71
2024/01/15 09:35:34;;;;;;;6.77;2.00;;;;;;;-0.48;100.00;100102.88;5283607;28;20025;-71
2024/01/15 09:38:05;;;;;;;5.03;2.00;;;;;;;-0.51;100.00;100097.69;5283466;28;20039;-71
2024/01/15 09:40:38;;;;;;;4.97;1.73;;;;;;;-0.48;100.00;100097.75;5283512;28;20116;-71
2024/01/15 09:43:10;;;;;;;7.07;1.83;;;;;;;-0.53;100.00;100101.03;5282980;28;20017;-72
2024/01/15 09:45:42;;;;;;;4.27;1.90;;;;;;;-0.52;100.00;100103.63;5283093;28;20039;-71
2024/01/15 09:48:13;;;;;;;10.05;1.90;;;;;;;-0.51;100.00;100119.88;5281892;28;20028;-72
2024/01/15 09:50:46;;;;;;;6.07;2.20;;;;;;;-0.50;100.00;100119.91;5283661;28;20036;-72
2024/01/15 09:53:18;;;;;;;6.38;2.03;;;;;;;-0.46;100.00;100126.81;5283275;28;20036;-72
2024/01/15 09:55:50;;;;;;;6.47;2.42;;;;;;;-0.44;100.00;100130.25;5283865;28;20031;-72
2024/01/15 09:58:21;;;;;;;6.73;1.90;;;;;;;-0.47;100.00;100121.66;5282907;28;20036;-72
2024/01/15 10:00:54;;;;;;;8.63;2.30;;;;;;;-0.47;100.00;100135.31;5282634;28;20064;-72
2024/01/15 10:03:25;;;;;;;8.23;1.90;;;;;;;-0.49;100.00;100139.56;5283096;28;20048;-72
2024/01/15 10:05:59;;;;;;;5.60;2.73;;;;;;;-0.49;100.00;100133.56;5283072;28;20108;-72
2024/01/15 10:08:32;;;;;;;5.40;2.30;;;;;;;-0.51;100.00;100141.22;5282608;28;20154;-72
2024/01/15 10:11:04;;;;;;;10.60;3.15;;;;;;;-0.17;100.00;100129.13;5283357;28;20036;-72
2024/01/15 10:13:36;;;;;;;6.60;3.33;;;;;;;0.06;100.00;100128.72;5283053;28;20082;-72
2024/01/15 10:16:08;;;;;;;5.05;2.17;;;;;;;-0.06;100.00;100134.47;5283335;28;20511;-72
2024/01/15 10:18:39;;;;;;;7.73;3.80;;;;;;;-0.06;100.00;100130.19;5283467;28;20201;-71
2024/01/15 10:21:11;;;;;;;7.00;3.37;;;;;;;0.27;100.00;100112.88;5286387;28;20041;-71
2024/01/15 10:23:42;;;;;;;8.27;3.50;;;;;;;0.52;100.00;100114.19;5284912;28;20101;-71
2024/01/15 10:26:13;;;;;;;9.03;2.30;;;;;;;0.75;100.00;100111.97;5287194;28;20060;-71
2024/01/15 10:28:45;;;;;;;4.60;2.30;;;;;;;0.87;100.00;100116.44;5287260;28;20036;-71
2024/01/15 10:31:19;;;;;;;7.10;3.67;;;;;;;1.03;100.00;100112.41;5287590;28;20029;-72
2024/01/15 10:33:51;;;;;;;7.65;2.10;;;;;;;1.09;100.00;100123.66;5286592;28;20038;-71
2024/01/15 10:36:22;;;;;;;4.93;3.63;;;;;;;1.49;100.00;100122.50;5287269;28;20383;-72
2024/01/15 10:38:57;;;;;;;4.70;2.03;;;;;;;1.83;100.00;100123.78;5288305;28;20028;-72
2024/01/15 10:41:29;;;;;;;6.72;2.65;;;;;;;1.52;100.00;100132.81;5288843;28;20119;-72
2024/01/15 10:44:01;;;;;;;4.15;2.00;;;;;;;1.24;100.00;100132.41;5291779;28;20128;-72
2024/01/15 10:46:34;;;;;;;4.67;2.57;;;;;;;0.89;100.00;100130.19;5294682;28;20039;-71
2024/01/15 10:49:06;;;;;;;8.05;2.30;;;;;;;1.33;100.00;100124.84;5296706;28;20051;-72
2024/01/15 10:51:38;;;;;;;4.30;2.08;;;;;;;1.74;100.00;100129.69;5296993;28;20028;-71
2024/01/15 10:54:11;;;;;;;4.27;1.93;;;;;;;1.67;100.00;100127.00;5297219;28;20438;-71
2024/01/15 10:56:45;;;;;;;13.23;2.58;;;;;;;1.94;100.00;100127.34;5294398;28;20023;-72
2024/01/15 10:59:16;;;;;;;4.95;1.80;;;;;;;1.66;100.00;100132.97;5292133;28;20140;-73
2024/01/15 11:01:50;;;;;;;6.50;2.17;;;;;;;1.42;100.00;100134.38;5293023;28;20048;-72
2024/01/15 11:04:23;;;;;;;2.92;1.77;;;;;;;1.72;100.00;100127.91;5292434;28;20037;-72
2024/01/15 11:06:55;;;;;;;4.97;1.77;;;;;;;1.55;100.00;100122.56;5291323;28;20028;-72
2024/01/15 11:09:27;;;;;;;4.30;1.65;;;;;;;1.12;100.00;100142.50;5290747;28;20028;-73
2024/01/15 11:12:12;;;;;;;6.67;2.97;;;;;;;1.59;100.00;100142.31;5289384;28;20086;-72
2024/01/15 11:14:49;;;;;;;5.22;2.28;;;;;;;1.97;100.00;100157.38;5289826;28;20044;-72
2024/01/15 11:17:21;;;;;;;6.97;1.80;;;;;;;2.17;100.00;100155.00;5290449;28;20436;-71
2024/01/15 11:19:52;;;;;;;5.60;1.87;;;;;;;2.32;100.00;100144.91;5289779;28;20086;-73
2024/01/15 11:22:30;;;;;;;6.20;1.60;;;;;;;2.25;100.00;100147.38;5289900;28;20067;-73
2024/01/15 11:25:03;;;;;;;4.60;2.00;;;;;;;1.74;100.00;100159.63;5289836;28;20451;-73
2024/01/15 11:27:42;;;;;;;6.15;2.50;;;;;;;1.71;100.00;100170.75;5289450;28;20078;-72
2024/01/15 11:30:14;;;;;;;4.38;1.92;;;;;;;1.26;100.00;100170.09;5289533;28;20029;-72
2024/01/15 11:32:46;;;;;;;3.65;1.95;;;;;;;0.86;100.00;100164.34;5290015;28;20048;-72
2024/01/15 11:35:18;;;;;;;5.95;1.80;;;;;;;0.18;100.00;100150.31;5290569;28;20464;-70